メインページ
METAR-TAF:

METAR-TAF

空港 :

ドバイ, アラブ首長国連邦

ドバイ国際空港

緯度: 25-15-10N, 経度: 055-21-52E, 海抜: 8m

現時点の気象観測

当レポートは16分前の01:00(UTC)に作成
の風 6kt、東/南東から南西の間で変化する
気温 28°C
湿度 58%
気圧 1005 hPa
視程10km以上
1,500メートル以下は雲なし、積乱雲なし

METAR: OMDB 230100Z 18006KT 110V220 CAVOK 28/19 Q1005 NOSIG

時間: 05:16 (01:16 UTC)

予報

当レポートは2時間20分前の22:56(UTC)に作成
予報は23日の 00時(UTC)から 24日の 06時(UTC)まで有効
南/南西の風 8kt
視程: 8000m
23日の 05時(UTC)から 23日の 07時(UTC)まで徐々に
西の風 13kt
23日の 15時(UTC)から 23日の 17時(UTC)まで徐々に
の風 5kt

TAF: OMDB 222256Z 2300/2406 20008KT 8000 NSC BECMG 2305/2307 27013KT BECMG 2315/2317 18005KT

4,000以上の空港の気象観測と天気予報(METAR報とTAF報)

利用可能な観測所は地図上に黄色い丸と赤い丸で示す。

丸の上にカーソルを重ねると観測所名を参照できる。

次にクリックすると気象観測と天気予報を参照できる。

マップの切り替え:黒色「×」印の緑ボタンをクリックして拡大、「-」印の緑ボタンをクリックして縮小、緑色の三角印をクリックして隣りの地図に切り替え


METAR-TAF: